2019-06-21T17:52:50+02:00 GET /shop/termek/bosch-ppq7a6b90-edzettuveg-gazfozolap/1600443 HTTP/1.1
2019-06-21T18:51:24+02:00 GET /shop/termek/karcher-11956000-vc-6-porszivo-basic-garancia/1605699 HTTP/1.1
2019-06-21T19:50:22+02:00 GET /shop/termek/curver-pedalos-szemetes-femhatasu-5-l/1083270 HTTP/1.1
2019-06-21T21:31:45+02:00 GET /shop/termek/curver-pedalos-szemetes-femhatasu-5-l/1083270 HTTP/1.1
2019-06-22T03:22:31+02:00 GET /shop/termek/fieldmann-fvc-2001-ec-buvarszivattyu/1526545 HTTP/1.1
2019-06-22T06:37:24+02:00 GET /shop/termek/fieldmann-fzr-2035e-elektromos-funyiro-1600w/1640382 HTTP/1.1
2019-06-22T07:02:57+02:00 GET /shop/termek/karcher-15271500-porszivo-t-101-porszivo-basic-garancia/1664143 HTTP/1.1
2019-06-22T07:58:41+02:00 GET /shop/termek/curver-gorgos-szemetes-muanyag-110l-sargafekete/1569942 HTTP/1.1
2019-06-22T08:33:13+02:00 GET /shop/termek/curver-pedalos-szemetes-femhatasu-5-l/1083270 HTTP/1.1
2019-06-22T03:22:31+02:00 GET /shop/termek/fieldmann-fvc-2001-ec-buvarszivattyu/1526545 HTTP/1.1
2019-06-24T08:36:34+02:00 GET /shop/termek/levenhuk-rainbow-2l-plus-mikroszkop-lila/1691536 HTTP/1.1
2019-06-24T08:36:34+02:00 GET /shop/termek/levenhuk-rainbow-2l-plus-mikroszkop-lila/1691536 HTTP/1.1
2019-06-24T11:20:55+02:00 GET /shop/termek/whitenergy-dell-latitude-d620-04805/299988 HTTP/1.1
2019-06-24T11:50:48+02:00 GET /shop/termek/electrolux-ehh6240isk-indukcios-fozolap/1452318 HTTP/1.1
2019-06-24T12:25:29+02:00 GET /shop/termek/curver-pedalos-szemetes-femhatasu-5-l/1083270 HTTP/1.1
2019-06-24T12:30:17+02:00 GET /shop/termek/bosch-bgs5rcl-relaxxx-prosilence-plus-porzsak-nelkuli-porszivo-azurkek-metal/1570323 HTTP/1.1
2019-06-24T15:50:23+02:00 GET /shop/termek/curver-pedalos-szemetes-femhatasu-5-l/1083270 HTTP/1.1
2019-06-24T16:58:23+02:00 GET /shop/termek/bosch-mum4427-konyhai-robotgep/1166693 HTTP/1.1
2019-06-24T17:11:16+02:00 GET /shop/termek/bosch-mum4427-konyhai-robotgep/1166693 HTTP/1.1
2019-06-24T17:34:02+02:00 GET /shop/termek/curver-pedalos-szemetes-femhatasu-5-l/1083270 HTTP/1.1
2019-06-24T18:03:06+02:00 GET /shop/termek/bosch-mum4427-konyhai-robotgep/1166693 HTTP/1.1
2019-06-24T18:26:32+02:00 GET /shop/termek/bosch-mum4427-konyhai-robotgep/1166693 HTTP/1.1
2019-06-24T19:55:37+02:00 GET /shop/termek/bosch-bgc3u330-relyy-y-porszivo/1466215 HTTP/1.1
2019-06-24T20:30:19+02:00 GET /shop/termek/electrolux-ems21400s-mikrohullamu-suto/1166698 HTTP/1.1
2019-06-24T20:32:55+02:00 GET /shop/termek/curver-gorgos-szemetes-muanyag-110l-sargafekete/1569942 HTTP/1.1
2019-06-24T21:40:36+02:00 GET /shop/termek/electrolux-ems21400s-mikrohullamu-suto/1166698 HTTP/1.1
2019-06-25T03:25:14+02:00 GET /shop/termek/fieldmann-fzz-4002-teleszkopos-letra-32-m/1459878 HTTP/1.1
2019-06-25T07:11:57+02:00 GET /shop/termek/brother-hll3230cdw/1674879 HTTP/1.1
2019-06-25T08:17:58+02:00 GET /shop/termek/levenhuk-strike-90-plus/1691633 HTTP/1.1
2019-06-25T09:42:46+02:00 GET /shop/termek/curver-pedalos-szemetes-femhatasu-5-l/1083270 HTTP/1.1
2019-06-25T13:03:22+02:00 GET /shop/termek/philips-hu480101-levegoparasito/1562224 HTTP/1.1
2019-06-25T13:13:54+02:00 GET /shop/termek/curver-gorgos-szemetes-muanyag-110l-kekfekete/1640387 HTTP/1.1
2019-06-25T13:47:42+02:00 GET /shop/termek/electrolux-ems21400s-mikrohullamu-suto/1166698 HTTP/1.1
2019-06-25T14:59:31+02:00 GET /shop/termek/curver-pedalos-szemetes-femahatasu-20-l/597159 HTTP/1.1
2019-06-25T15:17:17+02:00 GET /shop/termek/electrolux-ems21400s-mikrohullamu-suto/1166698 HTTP/1.1
2019-06-25T15:30:06+02:00 GET /shop/termek/curver-pedalos-szemetes-femhatasu-5-l/1083270 HTTP/1.1
2019-06-25T15:57:03+02:00 GET /shop/termek/philips-hd934201-avance-collection-vizforralo/1264177 HTTP/1.1
2019-06-25T14:59:31+02:00 GET /shop/termek/curver-pedalos-szemetes-femahatasu-20-l/597159 HTTP/1.1
2019-06-25T15:17:17+02:00 GET /shop/termek/electrolux-ems21400s-mikrohullamu-suto/1166698 HTTP/1.1
2019-06-25T15:30:06+02:00 GET /shop/termek/curver-pedalos-szemetes-femhatasu-5-l/1083270 HTTP/1.1
2019-06-25T15:57:03+02:00 GET /shop/termek/philips-hd934201-avance-collection-vizforralo/1264177 HTTP/1.1
2019-06-25T16:32:20+02:00 GET /shop/termek/curver-pedalos-szemetes-femhatasu-5-l/1083270 HTTP/1.1
2019-06-25T17:03:45+02:00 GET /shop/termek/curver-pedalos-szemetes-femhatasu-5-l/1083270 HTTP/1.1
2019-06-25T21:23:19+02:00 GET /shop/termek/philips-ca6706-karbantartokeszlet/844788 HTTP/1.1
2019-06-25T23:22:45+02:00 GET /shop/termek/curver-gorgos-szemetes-muanyag-110l-kekfekete/1640387 HTTP/1.1
2019-06-26T01:23:30+02:00 GET /shop/termek/philips-s152004-elektromos-borotva/1453763 HTTP/1.1
2019-06-26T04:17:44+02:00 GET /shop/termek/philips-bhh81100-stylecare-tobbfunkcios-hajformazo-basic-garancia/1712375 HTTP/1.1
2019-06-26T04:46:32+02:00 GET /shop/termek/philips-mg110016-multigroom-1000es-sorozatu-rendkivul-pontos-szakallformazo-basic-garancia/1709901 HTTP/1.1
2019-06-26T05:48:08+02:00 GET /shop/termek/philips-hc545015-hairclipper-series-5000/1443335 HTTP/1.1
2019-06-26T06:06:55+02:00 GET /shop/termek/philips-s131004-elektromos-borotva/1453765 HTTP/1.1
2019-06-26T09:13:19+02:00 GET /shop/termek/levenhuk-sherman-pro-10x42-ketszemes-tavcso/1692437 HTTP/1.1
2019-06-26T09:13:47+02:00 GET /shop/termek/levenhuk-broadway-325l-blue-wavekek-hullam-lornyon-szinhazi-latcso/1692070 HTTP/1.1
2019-06-26T09:26:11+02:00 GET /shop/termek/meade-starnavigator-ng-90-mmes-refraktoros-teleszkop/1692103 HTTP/1.1
2019-06-26T12:26:28+02:00 GET /shop/termek/samsung-n960-galaxy-note-9-dual-sim-128gb-fekete-basic-garancia/1672368 HTTP/1.1
2019-06-26T13:02:19+02:00 GET /shop/termek/curver-pedalos-szemetes-femahatasu-40-l/597160 HTTP/1.1
2019-06-26T13:36:51+02:00 GET /shop/termek/piatnik-mouse-in-the-house-eger-a-hazban-tarsasjatek/1702520 HTTP/1.1
2019-06-26T20:20:09+02:00 GET /shop/termek/cata-02859394-szenszuro-aktiv/1655354 HTTP/1.1
2019-06-26T22:13:17+02:00 GET /shop/termek/karcher-15271500-porszivo-t-101-porszivo-basic-garancia/1664143 HTTP/1.1
2019-06-27T00:06:07+02:00 GET /shop/termek/philips-gc267020-easyspeed-advanced-gozolos-vasalo/1688506 HTTP/1.1
2019-06-27T02:57:44+02:00 GET /shop/termek/philips-gc453780-azur-gozolos-vasalo/1691168 HTTP/1.1
2019-06-27T04:19:59+02:00 GET /shop/termek/karcher-63694810-kendoszett-5-db-basic-garancia/1597839 HTTP/1.1
2019-06-27T08:58:24+02:00 GET /shop/termek/levenhuk-labzz-t3/1691538 HTTP/1.1
2019-06-27T09:11:27+02:00 GET /shop/termek/levenhuk-zeno-vizor-hr2-fejre-rogzitheto-toltheto-nagyito/1711625 HTTP/1.1
2019-06-27T09:17:41+02:00 GET /shop/termek/bresser-73274-peneszedesriaszto-higrometer-fekete/1714656 HTTP/1.1
2019-06-27T13:44:53+02:00 GET /shop/termek/victoria-curver-csipke-hatasu-kosar-mokka/1258999 HTTP/1.1
2019-06-27T14:41:10+02:00 GET /shop/termek/philips-fc824409-powergo-porzsakos-porszivo/1609268 HTTP/1.1
2019-06-27T14:50:15+02:00 GET /shop/termek/philips-ep533110-series-5000-automata-eszpresszogepek/1689197 HTTP/1.1
2019-06-27T17:15:23+02:00 GET /shop/termek/karcher-13552460-porszivo-t-151-ecoefficiency-basic-garancia/1670241 HTTP/1.1